sensor_id;sensor_type;location;lat;lon;timestamp;temperature;humidity
22426;DHT22;11380;50.822;15.790;2023-04-28T00:01:45;3.50;1.00
22426;DHT22;11380;50.822;15.790;2023-04-28T00:06:52;3.60;1.00
22426;DHT22;11380;50.822;15.790;2023-04-28T00:11:58;3.60;1.00
22426;DHT22;11380;50.822;15.790;2023-04-28T00:17:06;3.50;1.00
22426;DHT22;11380;50.822;15.790;2023-04-28T00:22:14;3.10;1.00
22426;DHT22;11380;50.822;15.790;2023-04-28T00:27:20;3.30;1.00
22426;DHT22;11380;50.822;15.790;2023-04-28T00:32:26;3.20;1.00
22426;DHT22;11380;50.822;15.790;2023-04-28T00:37:34;3.00;1.00
22426;DHT22;11380;50.822;15.790;2023-04-28T00:42:40;2.90;1.00
22426;DHT22;11380;50.822;15.790;2023-04-28T00:47:47;2.90;1.00
22426;DHT22;11380;50.822;15.790;2023-04-28T00:52:53;2.50;1.00
22426;DHT22;11380;50.822;15.790;2023-04-28T00:57:59;2.20;1.00
22426;DHT22;11380;50.822;15.790;2023-04-28T01:03:05;2.50;1.00
22426;DHT22;11380;50.822;15.790;2023-04-28T01:08:11;2.40;1.00
22426;DHT22;11380;50.822;15.790;2023-04-28T01:13:17;2.00;1.00
22426;DHT22;11380;50.822;15.790;2023-04-28T01:18:23;2.30;1.00
22426;DHT22;11380;50.822;15.790;2023-04-28T01:23:30;2.10;1.00
22426;DHT22;11380;50.822;15.790;2023-04-28T01:28:37;2.00;1.00
22426;DHT22;11380;50.822;15.790;2023-04-28T01:33:43;2.20;1.00
22426;DHT22;11380;50.822;15.790;2023-04-28T01:38:50;2.20;1.00
22426;DHT22;11380;50.822;15.790;2023-04-28T01:43:56;2.20;1.00
22426;DHT22;11380;50.822;15.790;2023-04-28T01:49:03;1.90;1.00
22426;DHT22;11380;50.822;15.790;2023-04-28T01:54:10;2.20;1.00
22426;DHT22;11380;50.822;15.790;2023-04-28T01:59:19;2.10;1.00
22426;DHT22;11380;50.822;15.790;2023-04-28T02:04:25;1.50;1.00
22426;DHT22;11380;50.822;15.790;2023-04-28T02:09:32;1.90;1.00
22426;DHT22;11380;50.822;15.790;2023-04-28T02:14:38;1.70;1.00
22426;DHT22;11380;50.822;15.790;2023-04-28T02:19:44;1.40;1.00
22426;DHT22;11380;50.822;15.790;2023-04-28T02:24:50;1.70;1.00
22426;DHT22;11380;50.822;15.790;2023-04-28T02:29:57;1.70;1.00
22426;DHT22;11380;50.822;15.790;2023-04-28T02:35:04;2.00;1.00
22426;DHT22;11380;50.822;15.790;2023-04-28T02:40:13;1.90;1.00
22426;DHT22;11380;50.822;15.790;2023-04-28T02:45:20;1.80;1.00
22426;DHT22;11380;50.822;15.790;2023-04-28T02:50:26;1.70;1.00
22426;DHT22;11380;50.822;15.790;2023-04-28T02:55:32;1.50;1.00
22426;DHT22;11380;50.822;15.790;2023-04-28T03:00:38;1.20;1.00
22426;DHT22;11380;50.822;15.790;2023-04-28T03:05:43;1.60;1.00
22426;DHT22;11380;50.822;15.790;2023-04-28T03:10:50;1.50;1.00
22426;DHT22;11380;50.822;15.790;2023-04-28T03:15:56;1.10;1.00
22426;DHT22;11380;50.822;15.790;2023-04-28T03:21:02;1.60;1.00
22426;DHT22;11380;50.822;15.790;2023-04-28T03:26:08;1.20;1.00
22426;DHT22;11380;50.822;15.790;2023-04-28T03:31:14;1.10;1.00
22426;DHT22;11380;50.822;15.790;2023-04-28T03:36:21;0.90;1.00
22426;DHT22;11380;50.822;15.790;2023-04-28T03:41:27;1.30;1.00
22426;DHT22;11380;50.822;15.790;2023-04-28T03:46:34;1.10;1.00
22426;DHT22;11380;50.822;15.790;2023-04-28T03:51:40;1.10;1.00
22426;DHT22;11380;50.822;15.790;2023-04-28T03:56:46;1.20;1.00
22426;DHT22;11380;50.822;15.790;2023-04-28T04:01:53;1.30;1.00
22426;DHT22;11380;50.822;15.790;2023-04-28T04:06:59;1.70;1.00
22426;DHT22;11380;50.822;15.790;2023-04-28T04:12:06;1.80;1.00
22426;DHT22;11380;50.822;15.790;2023-04-28T04:17:12;1.60;1.00
22426;DHT22;11380;50.822;15.790;2023-04-28T04:22:19;1.80;1.00
22426;DHT22;11380;50.822;15.790;2023-04-28T04:27:26;1.60;1.00
22426;DHT22;11380;50.822;15.790;2023-04-28T04:32:32;1.60;1.00
22426;DHT22;11380;50.822;15.790;2023-04-28T04:37:38;2.00;1.00
22426;DHT22;11380;50.822;15.790;2023-04-28T04:42:45;1.80;1.00
22426;DHT22;11380;50.822;15.790;2023-04-28T04:47:53;1.60;1.00
22426;DHT22;11380;50.822;15.790;2023-04-28T04:53:00;2.10;1.00
22426;DHT22;11380;50.822;15.790;2023-04-28T04:58:06;2.20;1.00
22426;DHT22;11380;50.822;15.790;2023-04-28T05:03:12;2.50;1.00
22426;DHT22;11380;50.822;15.790;2023-04-28T05:08:18;2.30;1.00
22426;DHT22;11380;50.822;15.790;2023-04-28T05:13:24;2.50;1.00
22426;DHT22;11380;50.822;15.790;2023-04-28T05:18:31;2.70;1.00
22426;DHT22;11380;50.822;15.790;2023-04-28T05:23:37;3.40;1.00
22426;DHT22;11380;50.822;15.790;2023-04-28T05:28:44;3.40;1.00
22426;DHT22;11380;50.822;15.790;2023-04-28T05:33:51;4.00;1.00
22426;DHT22;11380;50.822;15.790;2023-04-28T05:38:58;4.40;1.00
22426;DHT22;11380;50.822;15.790;2023-04-28T05:44:04;4.80;1.00
22426;DHT22;11380;50.822;15.790;2023-04-28T05:49:10;5.10;1.00
22426;DHT22;11380;50.822;15.790;2023-04-28T05:54:16;5.50;99.90
22426;DHT22;11380;50.822;15.790;2023-04-28T05:59:22;5.80;99.90
22426;DHT22;11380;50.822;15.790;2023-04-28T06:04:29;5.80;99.90
22426;DHT22;11380;50.822;15.790;2023-04-28T06:09:36;6.30;99.90
22426;DHT22;11380;50.822;15.790;2023-04-28T06:14:43;6.70;99.90
22426;DHT22;11380;50.822;15.790;2023-04-28T06:19:48;6.90;99.90
22426;DHT22;11380;50.822;15.790;2023-04-28T06:24:56;7.10;99.90
22426;DHT22;11380;50.822;15.790;2023-04-28T06:30:04;7.20;99.90
22426;DHT22;11380;50.822;15.790;2023-04-28T06:35:10;7.60;99.90
22426;DHT22;11380;50.822;15.790;2023-04-28T06:40:16;7.80;83.10
22426;DHT22;11380;50.822;15.790;2023-04-28T06:45:23;7.90;99.90
22426;DHT22;11380;50.822;15.790;2023-04-28T06:50:29;8.40;95.20
22426;DHT22;11380;50.822;15.790;2023-04-28T06:55:37;8.30;10.50
22426;DHT22;11380;50.822;15.790;2023-04-28T07:00:43;8.70;1.00
22426;DHT22;11380;50.822;15.790;2023-04-28T07:05:50;9.10;49.20
22426;DHT22;11380;50.822;15.790;2023-04-28T07:10:56;9.30;1.00
22426;DHT22;11380;50.822;15.790;2023-04-28T07:16:02;10.40;1.00
22426;DHT22;11380;50.822;15.790;2023-04-28T07:21:09;10.40;1.00
22426;DHT22;11380;50.822;15.790;2023-04-28T07:26:15;11.30;99.90
22426;DHT22;11380;50.822;15.790;2023-04-28T07:31:21;12.40;1.00
22426;DHT22;11380;50.822;15.790;2023-04-28T07:36:27;12.70;1.00
22426;DHT22;11380;50.822;15.790;2023-04-28T07:41:37;13.10;1.00
22426;DHT22;11380;50.822;15.790;2023-04-28T07:46:42;13.10;1.00
22426;DHT22;11380;50.822;15.790;2023-04-28T07:51:49;12.80;1.00
22426;DHT22;11380;50.822;15.790;2023-04-28T07:56:57;13.10;1.00
22426;DHT22;11380;50.822;15.790;2023-04-28T08:02:03;13.30;1.00
22426;DHT22;11380;50.822;15.790;2023-04-28T08:07:11;14.00;1.00
22426;DHT22;11380;50.822;15.790;2023-04-28T08:12:17;14.20;1.00
22426;DHT22;11380;50.822;15.790;2023-04-28T08:17:23;14.30;1.00
22426;DHT22;11380;50.822;15.790;2023-04-28T08:22:31;14.40;1.00
22426;DHT22;11380;50.822;15.790;2023-04-28T08:27:37;14.40;1.00
22426;DHT22;11380;50.822;15.790;2023-04-28T08:32:44;14.40;1.00
22426;DHT22;11380;50.822;15.790;2023-04-28T08:37:50;14.60;1.00
22426;DHT22;11380;50.822;15.790;2023-04-28T08:42:58;14.20;1.00
22426;DHT22;11380;50.822;15.790;2023-04-28T08:48:05;15.10;1.00
22426;DHT22;11380;50.822;15.790;2023-04-28T08:53:20;15.00;1.00
22426;DHT22;11380;50.822;15.790;2023-04-28T08:58:31;14.50;1.00
22426;DHT22;11380;50.822;15.790;2023-04-28T09:03:37;14.70;1.00
22426;DHT22;11380;50.822;15.790;2023-04-28T09:08:43;14.90;1.00
22426;DHT22;11380;50.822;15.790;2023-04-28T09:13:49;15.00;1.00
22426;DHT22;11380;50.822;15.790;2023-04-28T09:18:55;15.20;1.00
22426;DHT22;11380;50.822;15.790;2023-04-28T09:24:02;15.50;1.00
22426;DHT22;11380;50.822;15.790;2023-04-28T09:29:11;15.40;1.00
22426;DHT22;11380;50.822;15.790;2023-04-28T09:34:19;15.60;1.00
22426;DHT22;11380;50.822;15.790;2023-04-28T09:39:34;15.90;1.00
22426;DHT22;11380;50.822;15.790;2023-04-28T09:44:36;16.50;1.00
22426;DHT22;11380;50.822;15.790;2023-04-28T09:49:52;16.00;1.00
22426;DHT22;11380;50.822;15.790;2023-04-28T09:55:01;15.60;1.00
22426;DHT22;11380;50.822;15.790;2023-04-28T10:00:08;16.20;1.00
22426;DHT22;11380;50.822;15.790;2023-04-28T10:05:15;16.30;1.00
22426;DHT22;11380;50.822;15.790;2023-04-28T10:10:21;16.60;1.00
22426;DHT22;11380;50.822;15.790;2023-04-28T10:15:28;16.10;1.00
22426;DHT22;11380;50.822;15.790;2023-04-28T10:20:34;16.80;1.00
22426;DHT22;11380;50.822;15.790;2023-04-28T10:25:40;16.90;1.00
22426;DHT22;11380;50.822;15.790;2023-04-28T10:41:55;16.60;1.00
22426;DHT22;11380;50.822;15.790;2023-04-28T10:47:05;17.00;1.00
22426;DHT22;11380;50.822;15.790;2023-04-28T10:57:41;16.70;1.00
22426;DHT22;11380;50.822;15.790;2023-04-28T11:02:47;16.40;1.00
22426;DHT22;11380;50.822;15.790;2023-04-28T11:13:28;16.90;1.00
22426;DHT22;11380;50.822;15.790;2023-04-28T11:18:56;17.40;1.00
22426;DHT22;11380;50.822;15.790;2023-04-28T11:24:08;16.60;1.00
22426;DHT22;11380;50.822;15.790;2023-04-28T11:29:14;17.30;1.00
22426;DHT22;11380;50.822;15.790;2023-04-28T11:34:20;17.50;1.00
22426;DHT22;11380;50.822;15.790;2023-04-28T11:39:26;17.00;1.00
22426;DHT22;11380;50.822;15.790;2023-04-28T11:44:33;17.40;1.00
22426;DHT22;11380;50.822;15.790;2023-04-28T11:49:46;17.90;1.00
22426;DHT22;11380;50.822;15.790;2023-04-28T11:54:54;17.80;1.00
22426;DHT22;11380;50.822;15.790;2023-04-28T12:00:15;18.00;1.00
22426;DHT22;11380;50.822;15.790;2023-04-28T12:05:23;17.20;1.00
22426;DHT22;11380;50.822;15.790;2023-04-28T12:10:29;17.30;1.00
22426;DHT22;11380;50.822;15.790;2023-04-28T12:15:41;16.90;1.00
22426;DHT22;11380;50.822;15.790;2023-04-28T12:20:47;16.50;1.00
22426;DHT22;11380;50.822;15.790;2023-04-28T12:25:53;16.60;1.00
22426;DHT22;11380;50.822;15.790;2023-04-28T12:31:02;16.80;1.00
22426;DHT22;11380;50.822;15.790;2023-04-28T12:36:09;16.80;1.00
22426;DHT22;11380;50.822;15.790;2023-04-28T12:41:15;16.50;1.00
22426;DHT22;11380;50.822;15.790;2023-04-28T12:46:23;17.30;1.00
22426;DHT22;11380;50.822;15.790;2023-04-28T12:51:28;17.80;1.00
22426;DHT22;11380;50.822;15.790;2023-04-28T12:56:36;16.80;1.00
22426;DHT22;11380;50.822;15.790;2023-04-28T13:01:42;16.30;1.00
22426;DHT22;11380;50.822;15.790;2023-04-28T13:06:48;16.20;1.00
22426;DHT22;11380;50.822;15.790;2023-04-28T13:11:53;16.00;1.00
22426;DHT22;11380;50.822;15.790;2023-04-28T13:17:01;15.90;1.00
22426;DHT22;11380;50.822;15.790;2023-04-28T13:22:09;15.50;1.00
22426;DHT22;11380;50.822;15.790;2023-04-28T13:27:15;15.40;1.00
22426;DHT22;11380;50.822;15.790;2023-04-28T13:32:21;15.60;1.00
22426;DHT22;11380;50.822;15.790;2023-04-28T13:37:27;15.30;1.00
22426;DHT22;11380;50.822;15.790;2023-04-28T13:42:33;15.50;1.00
22426;DHT22;11380;50.822;15.790;2023-04-28T13:47:39;15.40;1.00
22426;DHT22;11380;50.822;15.790;2023-04-28T13:52:45;15.40;1.00
22426;DHT22;11380;50.822;15.790;2023-04-28T13:57:57;15.40;1.00
22426;DHT22;11380;50.822;15.790;2023-04-28T14:03:00;15.50;1.00
22426;DHT22;11380;50.822;15.790;2023-04-28T14:08:07;15.30;1.00
22426;DHT22;11380;50.822;15.790;2023-04-28T14:13:14;15.30;1.00
22426;DHT22;11380;50.822;15.790;2023-04-28T14:18:21;15.20;1.00
22426;DHT22;11380;50.822;15.790;2023-04-28T14:23:28;15.40;1.00
22426;DHT22;11380;50.822;15.790;2023-04-28T14:28:33;15.70;1.00
22426;DHT22;11380;50.822;15.790;2023-04-28T14:33:40;15.30;1.00
22426;DHT22;11380;50.822;15.790;2023-04-28T14:38:46;15.60;1.00
22426;DHT22;11380;50.822;15.790;2023-04-28T14:43:51;15.40;1.00
22426;DHT22;11380;50.822;15.790;2023-04-28T14:48:58;15.40;1.00
22426;DHT22;11380;50.822;15.790;2023-04-28T14:54:04;15.00;1.00
22426;DHT22;11380;50.822;15.790;2023-04-28T14:59:11;15.00;1.00
22426;DHT22;11380;50.822;15.790;2023-04-28T15:04:17;14.70;1.00
22426;DHT22;11380;50.822;15.790;2023-04-28T15:09:24;14.60;1.00
22426;DHT22;11380;50.822;15.790;2023-04-28T15:14:30;14.50;99.90
22426;DHT22;11380;50.822;15.790;2023-04-28T15:19:36;14.50;99.90
22426;DHT22;11380;50.822;15.790;2023-04-28T15:24:43;14.40;99.90
22426;DHT22;11380;50.822;15.790;2023-04-28T15:29:49;14.60;1.00
22426;DHT22;11380;50.822;15.790;2023-04-28T15:34:55;14.70;1.00
22426;DHT22;11380;50.822;15.790;2023-04-28T15:40:00;14.50;1.00
22426;DHT22;11380;50.822;15.790;2023-04-28T15:45:07;14.70;1.00
22426;DHT22;11380;50.822;15.790;2023-04-28T15:50:17;14.10;1.00
22426;DHT22;11380;50.822;15.790;2023-04-28T15:55:23;13.80;99.90
22426;DHT22;11380;50.822;15.790;2023-04-28T16:00:29;13.80;99.90
22426;DHT22;11380;50.822;15.790;2023-04-28T16:05:36;13.90;99.90
22426;DHT22;11380;50.822;15.790;2023-04-28T16:10:42;14.10;99.90
22426;DHT22;11380;50.822;15.790;2023-04-28T16:15:49;13.80;99.90
22426;DHT22;11380;50.822;15.790;2023-04-28T16:20:56;13.60;99.90
22426;DHT22;11380;50.822;15.790;2023-04-28T16:26:03;13.40;99.90
22426;DHT22;11380;50.822;15.790;2023-04-28T16:31:09;13.40;99.90
22426;DHT22;11380;50.822;15.790;2023-04-28T16:36:17;13.30;99.90
22426;DHT22;11380;50.822;15.790;2023-04-28T16:41:23;13.20;99.90
22426;DHT22;11380;50.822;15.790;2023-04-28T16:46:31;13.30;99.90
22426;DHT22;11380;50.822;15.790;2023-04-28T16:51:36;13.20;99.90
22426;DHT22;11380;50.822;15.790;2023-04-28T16:56:42;12.90;99.90
22426;DHT22;11380;50.822;15.790;2023-04-28T17:01:48;12.90;99.90
22426;DHT22;11380;50.822;15.790;2023-04-28T17:06:54;12.90;99.90
22426;DHT22;11380;50.822;15.790;2023-04-28T17:12:01;12.80;99.90
22426;DHT22;11380;50.822;15.790;2023-04-28T17:17:08;12.80;99.90
22426;DHT22;11380;50.822;15.790;2023-04-28T17:22:15;12.70;99.90
22426;DHT22;11380;50.822;15.790;2023-04-28T17:27:21;12.80;99.90
22426;DHT22;11380;50.822;15.790;2023-04-28T17:32:27;12.70;99.90
22426;DHT22;11380;50.822;15.790;2023-04-28T17:37:35;12.60;99.90
22426;DHT22;11380;50.822;15.790;2023-04-28T17:42:41;12.50;1.00
22426;DHT22;11380;50.822;15.790;2023-04-28T17:47:48;12.40;1.00
22426;DHT22;11380;50.822;15.790;2023-04-28T17:52:58;12.30;1.00
22426;DHT22;11380;50.822;15.790;2023-04-28T17:58:06;12.30;1.00
22426;DHT22;11380;50.822;15.790;2023-04-28T18:03:11;12.20;1.00
22426;DHT22;11380;50.822;15.790;2023-04-28T18:08:18;12.20;99.90
22426;DHT22;11380;50.822;15.790;2023-04-28T18:13:27;12.10;17.90
22426;DHT22;11380;50.822;15.790;2023-04-28T18:18:34;12.00;99.90
22426;DHT22;11380;50.822;15.790;2023-04-28T18:23:42;11.90;99.90
22426;DHT22;11380;50.822;15.790;2023-04-28T18:28:50;12.00;99.90
22426;DHT22;11380;50.822;15.790;2023-04-28T18:33:56;11.90;99.90
22426;DHT22;11380;50.822;15.790;2023-04-28T18:39:04;11.90;1.00
22426;DHT22;11380;50.822;15.790;2023-04-28T18:44:12;11.90;99.90
22426;DHT22;11380;50.822;15.790;2023-04-28T18:49:19;11.90;99.90
22426;DHT22;11380;50.822;15.790;2023-04-28T18:54:27;11.90;30.10
22426;DHT22;11380;50.822;15.790;2023-04-28T18:59:33;12.00;1.00
22426;DHT22;11380;50.822;15.790;2023-04-28T19:04:40;11.90;1.00
22426;DHT22;11380;50.822;15.790;2023-04-28T19:09:54;11.80;1.00
22426;DHT22;11380;50.822;15.790;2023-04-28T19:15:04;11.80;1.00
22426;DHT22;11380;50.822;15.790;2023-04-28T19:20:14;11.80;1.00
22426;DHT22;11380;50.822;15.790;2023-04-28T19:25:21;11.80;1.00
22426;DHT22;11380;50.822;15.790;2023-04-28T19:30:29;11.90;1.00
22426;DHT22;11380;50.822;15.790;2023-04-28T19:35:36;11.80;1.00
22426;DHT22;11380;50.822;15.790;2023-04-28T19:40:43;11.70;1.00
22426;DHT22;11380;50.822;15.790;2023-04-28T19:45:49;11.80;1.00
22426;DHT22;11380;50.822;15.790;2023-04-28T19:50:55;11.80;1.00
22426;DHT22;11380;50.822;15.790;2023-04-28T19:56:03;11.80;1.00
22426;DHT22;11380;50.822;15.790;2023-04-28T20:01:10;11.80;1.00
22426;DHT22;11380;50.822;15.790;2023-04-28T20:06:16;11.80;99.90
22426;DHT22;11380;50.822;15.790;2023-04-28T20:11:22;11.80;99.90
22426;DHT22;11380;50.822;15.790;2023-04-28T20:16:28;11.80;99.90
22426;DHT22;11380;50.822;15.790;2023-04-28T20:21:36;11.70;1.00
22426;DHT22;11380;50.822;15.790;2023-04-28T20:26:42;11.80;99.90
22426;DHT22;11380;50.822;15.790;2023-04-28T20:31:49;11.80;99.90
22426;DHT22;11380;50.822;15.790;2023-04-28T20:36:56;11.80;99.90
22426;DHT22;11380;50.822;15.790;2023-04-28T20:42:04;11.80;99.90
22426;DHT22;11380;50.822;15.790;2023-04-28T20:47:10;11.80;99.90
22426;DHT22;11380;50.822;15.790;2023-04-28T20:52:16;11.80;1.00
22426;DHT22;11380;50.822;15.790;2023-04-28T20:57:22;11.80;99.90
22426;DHT22;11380;50.822;15.790;2023-04-28T21:02:29;11.80;99.90
22426;DHT22;11380;50.822;15.790;2023-04-28T21:07:36;11.80;99.90
22426;DHT22;11380;50.822;15.790;2023-04-28T21:12:42;11.90;99.90
22426;DHT22;11380;50.822;15.790;2023-04-28T21:17:49;11.90;99.90
22426;DHT22;11380;50.822;15.790;2023-04-28T21:22:55;11.90;99.90
22426;DHT22;11380;50.822;15.790;2023-04-28T21:28:02;11.70;99.90
22426;DHT22;11380;50.822;15.790;2023-04-28T21:33:08;11.80;99.90
22426;DHT22;11380;50.822;15.790;2023-04-28T21:38:14;11.60;99.90
22426;DHT22;11380;50.822;15.790;2023-04-28T21:43:20;11.60;99.90
22426;DHT22;11380;50.822;15.790;2023-04-28T21:48:27;11.60;99.90
22426;DHT22;11380;50.822;15.790;2023-04-28T21:53:34;11.60;99.90
22426;DHT22;11380;50.822;15.790;2023-04-28T21:58:40;11.60;99.90
22426;DHT22;11380;50.822;15.790;2023-04-28T22:03:46;11.70;99.90
22426;DHT22;11380;50.822;15.790;2023-04-28T22:08:54;11.60;1.00
22426;DHT22;11380;50.822;15.790;2023-04-28T22:14:00;11.70;1.00
22426;DHT22;11380;50.822;15.790;2023-04-28T22:19:07;11.70;1.00
22426;DHT22;11380;50.822;15.790;2023-04-28T22:24:13;11.70;1.00
22426;DHT22;11380;50.822;15.790;2023-04-28T22:29:20;11.70;1.00
22426;DHT22;11380;50.822;15.790;2023-04-28T22:34:26;11.70;1.00
22426;DHT22;11380;50.822;15.790;2023-04-28T22:39:32;11.70;1.00
22426;DHT22;11380;50.822;15.790;2023-04-28T22:44:38;11.70;1.00
22426;DHT22;11380;50.822;15.790;2023-04-28T22:49:44;11.50;1.00
22426;DHT22;11380;50.822;15.790;2023-04-28T22:54:51;11.60;99.90
22426;DHT22;11380;50.822;15.790;2023-04-28T22:59:58;11.60;99.90
22426;DHT22;11380;50.822;15.790;2023-04-28T23:05:04;11.60;99.90
22426;DHT22;11380;50.822;15.790;2023-04-28T23:10:10;11.70;99.90
22426;DHT22;11380;50.822;15.790;2023-04-28T23:15:19;11.70;99.90
22426;DHT22;11380;50.822;15.790;2023-04-28T23:20:25;11.70;99.90
22426;DHT22;11380;50.822;15.790;2023-04-28T23:25:31;11.60;1.00
22426;DHT22;11380;50.822;15.790;2023-04-28T23:30:37;11.30;1.00
22426;DHT22;11380;50.822;15.790;2023-04-28T23:35:42;11.30;1.00
22426;DHT22;11380;50.822;15.790;2023-04-28T23:40:49;11.20;99.90
22426;DHT22;11380;50.822;15.790;2023-04-28T23:45:54;11.30;99.90
22426;DHT22;11380;50.822;15.790;2023-04-28T23:51:00;11.30;1.00
22426;DHT22;11380;50.822;15.790;2023-04-28T23:56:06;11.30;1.00
